createdAt,value
2018-05-16T00:00:43.337Z,0.00
2018-05-16T00:01:43.263Z,0.00
2018-05-16T00:02:43.189Z,0.00
2018-05-16T00:03:43.114Z,0.00
2018-05-16T00:04:43.039Z,0.00
2018-05-16T00:05:42.966Z,0.00
2018-05-16T00:06:42.891Z,0.00
2018-05-16T00:07:42.816Z,0.00
2018-05-16T00:08:42.742Z,0.00
2018-05-16T00:09:42.668Z,0.00
2018-05-16T00:10:42.593Z,0.00
2018-05-16T00:11:42.518Z,0.00
2018-05-16T00:12:42.444Z,0.00
2018-05-16T00:13:42.370Z,0.00
2018-05-16T00:14:42.297Z,0.00
2018-05-16T00:15:42.220Z,0.00
2018-05-16T00:16:42.146Z,0.00
2018-05-16T00:17:42.072Z,0.00
2018-05-16T00:18:41.997Z,0.00
2018-05-16T00:19:41.928Z,0.00
2018-05-16T00:20:41.857Z,0.00
2018-05-16T00:21:41.775Z,0.00
2018-05-16T00:22:41.700Z,0.00
2018-05-16T00:23:41.625Z,0.00
2018-05-16T00:24:41.551Z,0.00
2018-05-16T00:25:41.477Z,0.00
2018-05-16T00:26:41.404Z,0.00
2018-05-16T00:27:41.383Z,0.00
2018-05-16T00:28:41.254Z,0.00
2018-05-16T00:29:41.182Z,0.00
2018-05-16T00:30:41.106Z,0.00
2018-05-16T00:31:41.031Z,0.00
2018-05-16T00:32:40.956Z,0.00
2018-05-16T00:33:40.887Z,0.00
2018-05-16T00:34:40.808Z,0.00
2018-05-16T00:35:40.733Z,0.00
2018-05-16T00:36:40.659Z,0.00
2018-05-16T00:37:40.585Z,0.00
2018-05-16T00:38:40.510Z,0.00
2018-05-16T00:39:40.438Z,0.00
2018-05-16T00:40:40.360Z,0.00
2018-05-16T00:41:40.286Z,0.00
2018-05-16T00:42:40.213Z,0.00
2018-05-16T00:43:40.137Z,0.00
2018-05-16T00:44:40.063Z,0.00
2018-05-16T00:45:39.989Z,0.00
2018-05-16T00:46:39.914Z,0.00
2018-05-16T00:47:39.842Z,0.00
2018-05-16T00:48:39.765Z,0.00
2018-05-16T00:49:39.691Z,0.00
2018-05-16T00:50:39.616Z,0.00
2018-05-16T00:51:39.542Z,0.00
2018-05-16T00:52:39.466Z,0.00
2018-05-16T00:53:39.394Z,0.00
2018-05-16T00:54:39.320Z,0.00
2018-05-16T00:55:39.244Z,0.00
2018-05-16T00:56:39.173Z,0.00
2018-05-16T00:57:39.095Z,0.00
2018-05-16T00:58:39.022Z,0.00
2018-05-16T00:59:38.947Z,0.00
2018-05-16T01:00:38.872Z,0.00
2018-05-16T01:01:38.797Z,0.00
2018-05-16T01:02:38.723Z,0.00
2018-05-16T01:03:38.797Z,0.00
2018-05-16T01:04:38.576Z,0.00
2018-05-16T01:05:38.500Z,0.00
2018-05-16T01:06:38.425Z,0.00
2018-05-16T01:07:38.350Z,0.00
2018-05-16T01:08:38.277Z,0.00
2018-05-16T01:09:38.201Z,0.00
2018-05-16T01:10:38.128Z,0.00
2018-05-16T01:11:38.052Z,0.00
2018-05-16T01:12:37.978Z,0.00
2018-05-16T01:13:37.905Z,0.00
2018-05-16T01:14:37.832Z,0.00
2018-05-16T01:15:37.754Z,0.00
2018-05-16T01:16:37.681Z,0.00
2018-05-16T01:17:37.608Z,0.00
2018-05-16T01:18:37.532Z,0.00
2018-05-16T01:19:37.456Z,0.00
2018-05-16T01:20:37.383Z,0.00
2018-05-16T01:21:37.311Z,0.00
2018-05-16T01:22:37.234Z,0.00
2018-05-16T01:23:37.159Z,0.00
2018-05-16T01:24:37.085Z,0.00
2018-05-16T01:25:37.012Z,0.00
2018-05-16T01:26:36.937Z,0.00
2018-05-16T01:27:36.861Z,0.00
2018-05-16T01:28:36.788Z,0.00
2018-05-16T01:29:36.862Z,0.00
2018-05-16T01:30:36.639Z,0.00
2018-05-16T01:31:36.565Z,0.00
2018-05-16T01:32:36.490Z,0.00
2018-05-16T01:33:36.415Z,0.00
2018-05-16T01:34:36.341Z,0.00
2018-05-16T01:35:36.266Z,0.00
2018-05-16T01:36:36.194Z,0.00
2018-05-16T01:37:36.118Z,0.00
2018-05-16T01:38:36.043Z,0.00
2018-05-16T01:39:35.970Z,0.00
2018-05-16T01:40:35.899Z,0.00
2018-05-16T01:41:35.820Z,0.00
2018-05-16T01:42:35.748Z,0.00
2018-05-16T01:43:35.672Z,0.00
2018-05-16T01:44:35.596Z,0.00
2018-05-16T01:45:35.523Z,0.00
2018-05-16T01:46:35.449Z,0.00
2018-05-16T01:47:35.374Z,0.00
2018-05-16T01:48:35.298Z,0.00
2018-05-16T01:49:35.230Z,0.00
2018-05-16T01:50:35.155Z,0.00
2018-05-16T01:51:35.076Z,0.00
2018-05-16T01:52:35.007Z,0.00
2018-05-16T01:53:34.928Z,0.00
2018-05-16T01:54:34.852Z,0.00
2018-05-16T01:55:34.777Z,0.00
2018-05-16T01:56:34.705Z,0.00
2018-05-16T01:57:34.629Z,0.00
2018-05-16T01:58:34.555Z,0.00
2018-05-16T01:59:34.479Z,0.00
2018-05-16T02:00:34.406Z,0.00
2018-05-16T02:01:34.331Z,0.00
2018-05-16T02:02:34.256Z,0.00
2018-05-16T02:03:34.182Z,0.00
2018-05-16T02:04:34.107Z,0.00
2018-05-16T02:05:34.034Z,0.00
2018-05-16T02:06:33.958Z,0.00
2018-05-16T02:07:33.887Z,0.00
2018-05-16T02:08:33.812Z,0.00
2018-05-16T02:09:33.735Z,0.00
2018-05-16T02:10:33.661Z,0.00
2018-05-16T02:11:33.585Z,0.00
2018-05-16T02:12:33.512Z,0.00
2018-05-16T02:13:33.437Z,0.00
2018-05-16T02:14:33.363Z,0.00
2018-05-16T02:15:33.290Z,0.00
2018-05-16T02:16:33.212Z,0.00
2018-05-16T02:17:33.141Z,0.00
2018-05-16T02:18:33.063Z,0.00
2018-05-16T02:19:32.992Z,0.00
2018-05-16T02:20:32.915Z,0.00
2018-05-16T02:21:32.839Z,0.00
2018-05-16T02:22:32.766Z,0.00
2018-05-16T02:23:32.691Z,0.00
2018-05-16T02:24:32.617Z,0.00
2018-05-16T02:25:32.541Z,0.00
2018-05-16T02:26:32.467Z,0.00
2018-05-16T02:27:32.392Z,0.00
2018-05-16T02:28:32.318Z,0.00
2018-05-16T02:29:32.243Z,0.00
2018-05-16T02:30:32.169Z,0.00
2018-05-16T02:31:32.095Z,0.00
2018-05-16T02:32:32.021Z,0.00
2018-05-16T02:33:31.965Z,0.00
2018-05-16T02:34:31.871Z,0.00
2018-05-16T02:35:31.796Z,0.00
2018-05-16T02:36:31.730Z,0.00
2018-05-16T02:37:31.741Z,0.00
2018-05-16T02:38:31.574Z,0.00
2018-05-16T02:39:31.498Z,0.00
2018-05-16T02:40:31.424Z,0.00
2018-05-16T02:41:31.349Z,0.00
2018-05-16T02:42:31.276Z,0.00
2018-05-16T02:43:31.201Z,0.00
2018-05-16T02:44:31.126Z,0.00
2018-05-16T02:45:31.057Z,0.00
2018-05-16T02:46:30.981Z,0.00
2018-05-16T02:47:31.090Z,0.00
2018-05-16T02:48:30.827Z,0.00
2018-05-16T02:49:30.752Z,0.00
2018-05-16T02:50:30.680Z,0.00
2018-05-16T02:51:30.603Z,0.00
2018-05-16T02:52:30.530Z,0.00
2018-05-16T02:53:30.473Z,0.00
2018-05-16T02:54:30.487Z,0.00
2018-05-16T02:55:30.306Z,0.00
2018-05-16T02:56:30.232Z,0.00
2018-05-16T02:57:30.157Z,0.00
2018-05-16T02:58:30.082Z,0.00
2018-05-16T02:59:30.006Z,0.00
2018-05-16T03:00:29.933Z,0.00
2018-05-16T03:01:29.857Z,0.00
2018-05-16T03:02:29.784Z,0.00
2018-05-16T03:03:29.709Z,0.00
2018-05-16T03:04:29.634Z,0.00
2018-05-16T03:05:29.561Z,0.00
2018-05-16T03:06:29.485Z,0.00
2018-05-16T03:07:29.410Z,0.00
2018-05-16T03:08:29.336Z,0.00
2018-05-16T03:09:29.262Z,0.00
2018-05-16T03:10:29.187Z,0.00
2018-05-16T03:11:29.117Z,0.00
2018-05-16T03:12:29.037Z,0.00
2018-05-16T03:13:28.962Z,0.00
2018-05-16T03:14:28.889Z,0.00
2018-05-16T03:15:28.814Z,0.00
2018-05-16T03:16:28.741Z,0.00
2018-05-16T03:17:28.664Z,0.00
2018-05-16T03:18:28.591Z,0.00
2018-05-16T03:19:28.515Z,0.00
2018-05-16T03:20:28.441Z,0.00
2018-05-16T03:21:28.371Z,0.00
2018-05-16T03:22:28.297Z,0.00
2018-05-16T03:23:28.217Z,0.00
2018-05-16T03:24:28.143Z,0.00
2018-05-16T03:25:28.067Z,0.00
2018-05-16T03:26:27.995Z,0.00
2018-05-16T03:27:27.918Z,0.00
2018-05-16T03:28:27.843Z,0.00
2018-05-16T03:29:27.771Z,0.00
2018-05-16T03:30:27.695Z,0.00
2018-05-16T03:31:27.621Z,0.00
2018-05-16T03:32:27.546Z,0.00
2018-05-16T03:33:27.472Z,0.00
2018-05-16T03:34:27.397Z,0.00
2018-05-16T03:35:27.324Z,0.00
2018-05-16T03:36:27.253Z,0.00
2018-05-16T03:37:27.174Z,0.00
2018-05-16T03:38:27.101Z,0.00
2018-05-16T03:39:27.024Z,0.00
2018-05-16T03:40:26.950Z,0.00
2018-05-16T03:41:26.877Z,5.63
2018-05-16T03:42:26.803Z,5.63
2018-05-16T03:43:26.727Z,0.00
2018-05-16T03:44:26.654Z,0.00
2018-05-16T03:45:26.584Z,0.00
2018-05-16T03:46:26.504Z,0.00
2018-05-16T03:47:26.429Z,0.00
2018-05-16T03:48:26.357Z,0.00
2018-05-16T03:49:26.286Z,0.00
2018-05-16T03:50:26.208Z,5.63
2018-05-16T03:51:26.133Z,0.00
2018-05-16T03:52:26.060Z,0.00
2018-05-16T03:53:25.985Z,0.00
2018-05-16T03:54:25.911Z,0.00
2018-05-16T03:55:25.835Z,0.00
2018-05-16T03:56:25.760Z,0.00
2018-05-16T03:57:25.689Z,0.00
2018-05-16T03:58:25.613Z,0.00
2018-05-16T03:59:25.539Z,0.00
2018-05-16T04:00:25.467Z,5.63
2018-05-16T04:01:25.389Z,5.63
2018-05-16T04:02:25.338Z,5.63
2018-05-16T04:03:25.240Z,5.63
2018-05-16T04:04:25.170Z,0.00
2018-05-16T04:05:25.093Z,0.00
2018-05-16T04:06:25.018Z,0.00
2018-05-16T04:07:24.943Z,0.00
2018-05-16T04:08:24.871Z,0.00
2018-05-16T04:09:24.794Z,0.00
2018-05-16T04:10:24.721Z,0.00
2018-05-16T04:11:24.647Z,5.63
2018-05-16T04:12:24.574Z,5.63
2018-05-16T04:13:24.559Z,5.63
2018-05-16T04:14:24.426Z,5.63
2018-05-16T04:15:24.347Z,5.63
2018-05-16T04:16:24.274Z,5.63
2018-05-16T04:17:24.200Z,5.63
2018-05-16T04:18:24.125Z,5.63
2018-05-16T04:19:24.050Z,5.63
2018-05-16T04:20:23.977Z,11.25
2018-05-16T04:21:23.903Z,11.25
2018-05-16T04:22:23.829Z,11.25
2018-05-16T04:23:23.753Z,11.25
2018-05-16T04:24:23.678Z,11.25
2018-05-16T04:25:23.606Z,11.25
2018-05-16T04:26:23.531Z,11.25
2018-05-16T04:27:23.456Z,11.25
2018-05-16T04:28:23.382Z,16.88
2018-05-16T04:29:23.308Z,16.88
2018-05-16T04:30:23.234Z,16.88
2018-05-16T04:31:23.159Z,22.50
2018-05-16T04:32:23.085Z,22.50
2018-05-16T04:33:23.012Z,16.88
2018-05-16T04:34:22.935Z,16.88
2018-05-16T04:35:22.861Z,16.88
2018-05-16T04:36:22.787Z,16.88
2018-05-16T04:37:22.712Z,16.88
2018-05-16T04:38:22.641Z,16.88
2018-05-16T04:39:22.564Z,16.88
2018-05-16T04:40:22.492Z,11.25
2018-05-16T04:41:22.415Z,11.25
2018-05-16T04:42:22.348Z,5.63
2018-05-16T04:43:22.267Z,5.63
2018-05-16T04:44:22.194Z,11.25
2018-05-16T04:45:22.118Z,11.25
2018-05-16T04:46:22.045Z,16.88
2018-05-16T04:47:21.969Z,11.25
2018-05-16T04:48:21.895Z,11.25
2018-05-16T04:49:21.823Z,16.88
2018-05-16T04:50:21.747Z,16.88
2018-05-16T04:51:21.673Z,16.88
2018-05-16T04:52:21.597Z,16.88
2018-05-16T04:53:21.524Z,22.50
2018-05-16T04:54:21.450Z,33.75
2018-05-16T04:55:21.378Z,39.38
2018-05-16T04:56:21.301Z,39.38
2018-05-16T04:57:21.227Z,39.38
2018-05-16T04:58:21.153Z,33.75
2018-05-16T04:59:21.077Z,28.13
2018-05-16T05:00:21.003Z,22.50
2018-05-16T05:01:20.930Z,22.50
2018-05-16T05:02:20.856Z,22.50
2018-05-16T05:03:20.781Z,22.50
2018-05-16T05:04:20.705Z,28.13
2018-05-16T05:05:20.632Z,28.13
2018-05-16T05:06:20.559Z,28.13
2018-05-16T05:07:20.483Z,22.50
2018-05-16T05:08:20.410Z,22.50
2018-05-16T05:09:20.340Z,28.13
2018-05-16T05:10:20.262Z,28.13
2018-05-16T05:11:20.188Z,28.13
2018-05-16T05:12:20.113Z,28.13
2018-05-16T05:13:20.039Z,28.13
2018-05-16T05:14:19.966Z,28.13
2018-05-16T05:15:19.891Z,22.50
2018-05-16T05:16:19.817Z,16.88
2018-05-16T05:17:19.744Z,16.88
2018-05-16T05:18:19.713Z,16.88
2018-05-16T05:19:19.595Z,11.25
2018-05-16T05:20:19.519Z,11.25
2018-05-16T05:21:19.447Z,11.25
2018-05-16T05:22:19.377Z,11.25
2018-05-16T05:23:19.299Z,11.25
2018-05-16T05:24:19.223Z,16.88
2018-05-16T05:25:19.151Z,16.88
2018-05-16T05:26:19.076Z,11.25
2018-05-16T05:27:19.000Z,11.25
2018-05-16T05:28:18.927Z,11.25
2018-05-16T05:29:18.852Z,5.63
2018-05-16T05:30:18.808Z,5.63
2018-05-16T05:31:18.704Z,5.63
2018-05-16T05:32:18.630Z,5.63
2018-05-16T05:33:18.556Z,5.63
2018-05-16T05:34:18.482Z,5.63
2018-05-16T05:35:18.407Z,11.25
2018-05-16T05:36:18.335Z,11.25
2018-05-16T05:37:18.257Z,28.13
2018-05-16T05:38:18.194Z,45.00
2018-05-16T05:39:18.109Z,56.25
2018-05-16T05:40:18.035Z,61.88
2018-05-16T05:41:17.962Z,61.88
2018-05-16T05:42:17.894Z,56.25
2018-05-16T05:43:17.833Z,50.63
2018-05-16T05:44:17.739Z,50.63
2018-05-16T05:45:17.663Z,50.63
2018-05-16T05:46:17.590Z,61.88
2018-05-16T05:47:17.514Z,73.13
2018-05-16T05:48:17.440Z,67.50
2018-05-16T05:49:17.405Z,56.25
2018-05-16T05:50:17.294Z,45.00
2018-05-16T05:51:17.217Z,33.75
2018-05-16T05:52:17.144Z,33.75
2018-05-16T05:53:17.069Z,45.00
2018-05-16T05:54:16.998Z,50.63
2018-05-16T05:55:16.920Z,61.88
2018-05-16T05:56:16.846Z,50.63
2018-05-16T05:57:16.772Z,45.00
2018-05-16T05:58:16.698Z,45.00
2018-05-16T05:59:16.622Z,45.00
2018-05-16T06:00:16.548Z,39.38
2018-05-16T06:01:16.475Z,39.38
2018-05-16T06:02:16.550Z,39.38
2018-05-16T06:03:16.324Z,39.38
2018-05-16T06:04:16.251Z,33.75
2018-05-16T06:05:16.177Z,33.75
2018-05-16T06:06:16.102Z,39.38
2018-05-16T06:07:16.031Z,33.75
2018-05-16T06:08:15.952Z,39.38
2018-05-16T06:09:15.886Z,33.75
2018-05-16T06:10:15.808Z,28.13
2018-05-16T06:11:15.730Z,28.13
2018-05-16T06:12:15.656Z,28.13
2018-05-16T06:13:15.580Z,33.75
2018-05-16T06:14:15.507Z,39.38
2018-05-16T06:15:15.432Z,39.38
2018-05-16T06:16:15.359Z,33.75
2018-05-16T06:17:15.283Z,39.38
2018-05-16T06:18:15.208Z,45.00
2018-05-16T06:19:15.133Z,56.25
2018-05-16T06:20:15.059Z,56.25
2018-05-16T06:21:14.986Z,61.88
2018-05-16T06:22:14.912Z,45.00
2018-05-16T06:23:14.837Z,33.75
2018-05-16T06:24:14.761Z,33.75
2018-05-16T06:25:14.688Z,45.00
2018-05-16T06:26:14.614Z,61.88
2018-05-16T06:27:14.566Z,56.25
2018-05-16T06:28:14.465Z,45.00
2018-05-16T06:29:14.389Z,39.38
2018-05-16T06:30:14.316Z,45.00
2018-05-16T06:31:14.244Z,50.63
2018-05-16T06:32:14.167Z,50.63
2018-05-16T06:33:14.093Z,56.25
2018-05-16T06:34:14.020Z,56.25
2018-05-16T06:35:13.944Z,56.25
2018-05-16T06:36:13.870Z,61.88
2018-05-16T06:37:13.795Z,67.50
2018-05-16T06:38:13.731Z,67.50
2018-05-16T06:39:13.739Z,78.75
2018-05-16T06:40:13.573Z,84.38
2018-05-16T06:41:13.499Z,90.00
2018-05-16T06:42:13.425Z,95.63
2018-05-16T06:43:13.350Z,101.25
2018-05-16T06:44:13.277Z,101.25
2018-05-16T06:45:13.202Z,90.00
2018-05-16T06:46:13.129Z,95.63
2018-05-16T06:47:13.053Z,90.00
2018-05-16T06:48:12.980Z,101.25
2018-05-16T06:49:12.905Z,118.13
2018-05-16T06:50:12.836Z,135.00
2018-05-16T06:51:12.757Z,129.38
2018-05-16T06:52:12.684Z,123.75
2018-05-16T06:53:12.610Z,135.00
2018-05-16T06:54:12.537Z,135.00
2018-05-16T06:55:12.461Z,157.50
2018-05-16T06:56:12.388Z,168.75
2018-05-16T06:57:12.315Z,191.25
2018-05-16T06:58:12.242Z,185.63
2018-05-16T06:59:12.267Z,196.88
2018-05-16T07:00:12.095Z,202.50
2018-05-16T07:01:12.020Z,208.13
2018-05-16T07:02:11.947Z,213.75
2018-05-16T07:03:11.872Z,219.38
2018-05-16T07:04:11.957Z,213.75
2018-05-16T07:05:11.724Z,208.13
2018-05-16T07:06:11.652Z,208.13
2018-05-16T07:07:11.577Z,208.13
2018-05-16T07:08:11.504Z,208.13
2018-05-16T07:09:11.431Z,213.75
2018-05-16T07:10:11.356Z,219.38
2018-05-16T07:11:11.282Z,225.00
2018-05-16T07:12:11.209Z,247.50
2018-05-16T07:13:11.136Z,270.00
2018-05-16T07:14:11.063Z,275.63
2018-05-16T07:15:10.989Z,270.00
2018-05-16T07:16:10.916Z,264.38
2018-05-16T07:17:10.843Z,253.13
2018-05-16T07:18:10.771Z,225.00
2018-05-16T07:19:10.695Z,208.13
2018-05-16T07:20:10.621Z,213.75
2018-05-16T07:21:10.550Z,225.00
2018-05-16T07:22:10.475Z,225.00
2018-05-16T07:23:10.400Z,247.50
2018-05-16T07:24:10.329Z,270.00
2018-05-16T07:25:10.256Z,275.63
2018-05-16T07:26:10.184Z,286.88
2018-05-16T07:27:10.112Z,292.50
2018-05-16T07:28:10.038Z,298.13
2018-05-16T07:29:09.964Z,320.63
2018-05-16T07:30:09.891Z,298.13
2018-05-16T07:31:09.818Z,225.00
2018-05-16T07:32:09.743Z,247.50
2018-05-16T07:33:09.671Z,275.63
2018-05-16T07:34:09.598Z,270.00
2018-05-16T07:35:09.529Z,292.50
2018-05-16T07:36:09.452Z,309.38
2018-05-16T07:37:09.403Z,303.75
2018-05-16T07:38:09.307Z,292.50
2018-05-16T07:39:09.233Z,292.50
2018-05-16T07:40:09.160Z,236.25
2018-05-16T07:41:09.109Z,185.63
2018-05-16T07:42:09.015Z,202.50
2018-05-16T07:43:08.942Z,213.75
2018-05-16T07:44:08.869Z,236.25
2018-05-16T07:45:08.795Z,247.50
2018-05-16T07:46:08.724Z,247.50
2018-05-16T07:47:08.683Z,230.63
2018-05-16T07:48:08.603Z,275.63
2018-05-16T07:49:08.502Z,258.75
2018-05-16T07:50:08.430Z,292.50
2018-05-16T07:51:08.387Z,331.88
2018-05-16T07:52:08.282Z,331.88
2018-05-16T07:53:08.211Z,286.88
2018-05-16T07:54:08.142Z,258.75
2018-05-16T07:55:08.065Z,270.00
2018-05-16T07:56:07.991Z,281.25
2018-05-16T07:57:07.923Z,292.50
2018-05-16T07:58:07.849Z,315.00
2018-05-16T07:59:07.775Z,286.88
2018-05-16T08:00:07.702Z,275.63
2018-05-16T08:01:07.629Z,270.00
2018-05-16T08:02:07.557Z,264.38
2018-05-16T08:03:07.495Z,286.88
2018-05-16T08:04:07.410Z,326.25
2018-05-16T08:05:07.339Z,331.88
2018-05-16T08:06:07.267Z,371.25
2018-05-16T08:07:07.192Z,399.38
2018-05-16T08:08:07.121Z,382.50
2018-05-16T08:09:07.049Z,298.13
2018-05-16T08:10:06.979Z,264.38
2018-05-16T08:11:06.902Z,213.75
2018-05-16T08:12:06.832Z,168.75
2018-05-16T08:13:06.759Z,219.38
2018-05-16T08:14:06.687Z,236.25
2018-05-16T08:15:06.619Z,281.25
2018-05-16T08:16:06.544Z,309.38
2018-05-16T08:17:06.471Z,303.75
2018-05-16T08:18:06.396Z,292.50
2018-05-16T08:19:06.323Z,275.63
2018-05-16T08:20:06.252Z,286.88
2018-05-16T08:21:06.179Z,286.88
2018-05-16T08:22:06.106Z,236.25
2018-05-16T08:23:06.036Z,191.25
2018-05-16T08:24:05.961Z,163.13
2018-05-16T08:25:05.889Z,123.75
2018-05-16T08:26:05.816Z,112.50
2018-05-16T08:27:05.742Z,140.63
2018-05-16T08:28:05.671Z,185.63
2018-05-16T08:29:05.599Z,146.25
2018-05-16T08:30:05.529Z,168.75
2018-05-16T08:31:05.540Z,202.50
2018-05-16T08:32:05.380Z,151.88
2018-05-16T08:33:05.309Z,129.38
2018-05-16T08:34:05.236Z,106.88
2018-05-16T08:35:05.162Z,95.63
2018-05-16T08:36:05.095Z,112.50
2018-05-16T08:37:05.018Z,163.13
2018-05-16T08:38:04.949Z,168.75
2018-05-16T08:39:04.872Z,185.63
2018-05-16T08:40:04.800Z,202.50
2018-05-16T08:41:04.728Z,180.00
2018-05-16T08:42:04.654Z,151.88
2018-05-16T08:43:04.629Z,123.75
2018-05-16T08:44:04.508Z,106.88
2018-05-16T08:45:04.439Z,135.00
2018-05-16T08:46:04.363Z,168.75
2018-05-16T08:47:04.289Z,168.75
2018-05-16T08:48:04.217Z,129.38
2018-05-16T08:49:04.145Z,78.75
2018-05-16T08:50:04.071Z,56.25
2018-05-16T08:51:03.997Z,56.25
2018-05-16T08:52:03.926Z,56.25
2018-05-16T08:53:03.852Z,56.25
2018-05-16T08:54:03.777Z,61.88
2018-05-16T08:55:03.704Z,73.13
2018-05-16T08:56:03.631Z,84.38
2018-05-16T08:57:03.556Z,90.00
2018-05-16T08:58:03.485Z,90.00
2018-05-16T08:59:03.411Z,90.00
2018-05-16T09:00:03.338Z,95.63
2018-05-16T09:01:03.264Z,95.63
2018-05-16T09:02:03.191Z,101.25
2018-05-16T09:03:03.116Z,106.88
2018-05-16T09:04:03.043Z,101.25
2018-05-16T09:05:02.970Z,95.63
2018-05-16T09:06:02.898Z,95.63
2018-05-16T09:07:02.823Z,101.25
2018-05-16T09:08:02.751Z,112.50
2018-05-16T09:09:02.679Z,112.50
2018-05-16T09:10:02.604Z,118.13
2018-05-16T09:11:02.533Z,118.13
2018-05-16T09:12:02.456Z,123.75
2018-05-16T09:13:02.383Z,135.00
2018-05-16T09:14:02.313Z,146.25
2018-05-16T09:15:02.237Z,157.50
2018-05-16T09:16:02.166Z,168.75
2018-05-16T09:17:02.091Z,174.38
2018-05-16T09:18:02.019Z,174.38
2018-05-16T09:19:01.945Z,180.00
2018-05-16T09:20:01.872Z,180.00
2018-05-16T09:21:01.800Z,196.88
2018-05-16T09:22:01.727Z,225.00
2018-05-16T09:23:01.653Z,253.13
2018-05-16T09:24:01.580Z,258.75
2018-05-16T09:25:01.608Z,270.00
2018-05-16T09:26:01.434Z,270.00
2018-05-16T09:27:01.361Z,270.00
2018-05-16T09:28:01.289Z,264.38
2018-05-16T09:29:01.216Z,241.88
2018-05-16T09:30:01.145Z,213.75
2018-05-16T09:31:01.072Z,213.75
2018-05-16T09:32:00.997Z,253.13
2018-05-16T09:33:00.925Z,298.13
2018-05-16T09:34:00.853Z,320.63
2018-05-16T09:35:00.778Z,365.63
2018-05-16T09:36:00.707Z,365.63
2018-05-16T09:37:00.635Z,331.88
2018-05-16T09:38:00.563Z,331.88
2018-05-16T09:39:00.489Z,298.13
2018-05-16T09:40:00.417Z,275.63
2018-05-16T09:41:00.345Z,270.00
2018-05-16T09:42:00.274Z,253.13
2018-05-16T09:43:00.200Z,236.25
2018-05-16T09:44:00.127Z,219.38
2018-05-16T09:45:00.058Z,219.38
2018-05-16T09:46:00.012Z,241.88
2018-05-16T09:46:59.912Z,236.25
2018-05-16T09:47:59.838Z,236.25
2018-05-16T09:48:59.767Z,241.88
2018-05-16T09:49:59.695Z,241.88
2018-05-16T09:50:59.621Z,247.50
2018-05-16T09:51:59.550Z,253.13
2018-05-16T09:52:59.477Z,264.38
2018-05-16T09:53:59.405Z,270.00
2018-05-16T09:54:59.332Z,264.38
2018-05-16T09:55:59.259Z,281.25
2018-05-16T09:56:59.188Z,298.13
2018-05-16T09:57:59.115Z,337.50
2018-05-16T09:58:59.043Z,354.38
2018-05-16T09:59:58.971Z,399.38
2018-05-16T10:00:58.899Z,433.13
2018-05-16T10:01:58.827Z,450.00
2018-05-16T10:02:58.754Z,455.63
2018-05-16T10:03:58.680Z,461.25
2018-05-16T10:04:58.609Z,450.00
2018-05-16T10:05:58.538Z,416.25
2018-05-16T10:06:58.465Z,438.75
2018-05-16T10:07:58.392Z,461.25
2018-05-16T10:08:58.321Z,483.75
2018-05-16T10:09:58.249Z,500.63
2018-05-16T10:10:58.177Z,523.13
2018-05-16T10:11:58.106Z,551.25
2018-05-16T10:12:58.033Z,579.38
2018-05-16T10:13:57.963Z,590.63
2018-05-16T10:14:57.889Z,607.50
2018-05-16T10:15:57.817Z,624.38
2018-05-16T10:16:57.758Z,630.00
2018-05-16T10:17:57.674Z,624.38
2018-05-16T10:18:57.602Z,601.88
2018-05-16T10:19:57.531Z,573.75
2018-05-16T10:20:57.461Z,551.25
2018-05-16T10:21:57.389Z,517.50
2018-05-16T10:22:57.319Z,455.63
2018-05-16T10:23:57.246Z,421.88
2018-05-16T10:24:57.176Z,427.50
2018-05-16T10:25:57.103Z,483.75
2018-05-16T10:26:57.031Z,506.25
2018-05-16T10:27:56.962Z,500.63
2018-05-16T10:28:56.891Z,489.38
2018-05-16T10:29:56.821Z,506.25
2018-05-16T10:30:56.748Z,545.63
2018-05-16T10:31:56.675Z,590.63
2018-05-16T10:32:56.606Z,590.63
2018-05-16T10:33:56.534Z,568.13
2018-05-16T10:34:56.463Z,534.38
2018-05-16T10:35:56.394Z,568.13
2018-05-16T10:36:56.320Z,646.88
2018-05-16T10:37:56.253Z,641.25
2018-05-16T10:38:56.177Z,545.63
2018-05-16T10:39:56.106Z,551.25
2018-05-16T10:40:56.034Z,630.00
2018-05-16T10:41:55.964Z,742.50
2018-05-16T10:42:55.894Z,697.50
2018-05-16T10:43:55.820Z,635.63
2018-05-16T10:44:55.751Z,607.50
2018-05-16T10:45:55.680Z,573.75
2018-05-16T10:46:55.609Z,511.88
2018-05-16T10:47:55.536Z,590.63
2018-05-16T10:48:55.466Z,562.50
2018-05-16T10:49:55.396Z,410.63
2018-05-16T10:50:55.325Z,450.00
2018-05-16T10:51:55.257Z,472.50
2018-05-16T10:52:55.183Z,523.13
2018-05-16T10:53:55.112Z,545.63
2018-05-16T10:54:55.043Z,523.13
2018-05-16T10:55:54.970Z,523.13
2018-05-16T10:56:54.900Z,472.50
2018-05-16T10:57:54.828Z,517.50
2018-05-16T10:58:54.757Z,556.88
2018-05-16T10:59:54.685Z,624.38
2018-05-16T11:00:54.616Z,1040.63
2018-05-16T11:01:54.545Z,1231.88
2018-05-16T11:02:54.474Z,2131.88
2018-05-16T11:03:54.404Z,821.25
2018-05-16T11:04:54.333Z,601.88
2018-05-16T11:05:54.264Z,461.25
2018-05-16T11:06:54.193Z,427.50
2018-05-16T11:07:54.123Z,483.75
2018-05-16T11:08:54.053Z,444.38
2018-05-16T11:09:53.983Z,894.38
2018-05-16T11:10:53.911Z,596.25
2018-05-16T11:11:53.841Z,528.75
2018-05-16T11:12:53.772Z,466.88
2018-05-16T11:13:53.702Z,495.00
2018-05-16T11:14:53.633Z,528.75
2018-05-16T11:15:53.560Z,523.13
2018-05-16T11:16:53.490Z,500.63
2018-05-16T11:17:53.419Z,506.25
2018-05-16T11:18:53.349Z,573.75
2018-05-16T11:19:53.279Z,483.75
2018-05-16T11:20:53.209Z,624.38
2018-05-16T11:21:53.137Z,601.88
2018-05-16T11:22:53.068Z,686.25
2018-05-16T11:23:52.998Z,883.13
2018-05-16T11:24:52.931Z,871.88
2018-05-16T11:25:52.858Z,630.00
2018-05-16T11:26:52.788Z,545.63
2018-05-16T11:27:52.725Z,596.25
2018-05-16T11:28:52.647Z,506.25
2018-05-16T11:29:52.579Z,489.38
2018-05-16T11:30:52.508Z,708.75
2018-05-16T11:31:52.438Z,596.25
2018-05-16T11:32:52.368Z,680.63
2018-05-16T11:33:52.298Z,675.00
2018-05-16T11:34:52.228Z,641.25
2018-05-16T11:35:52.160Z,2030.63
2018-05-16T11:36:52.090Z,2070.00
2018-05-16T11:37:52.020Z,742.50
2018-05-16T11:38:51.950Z,641.25
2018-05-16T11:39:51.886Z,748.13
2018-05-16T11:40:51.810Z,759.38
2018-05-16T11:41:51.743Z,1873.13
2018-05-16T11:42:51.673Z,3358.13
2018-05-16T11:43:51.605Z,2756.25
2018-05-16T11:44:51.535Z,765.00
2018-05-16T11:45:51.468Z,742.50
2018-05-16T11:46:51.399Z,3060.00
2018-05-16T11:47:51.332Z,4320.00
2018-05-16T11:48:51.362Z,2525.63
2018-05-16T11:49:51.196Z,1563.75
2018-05-16T11:50:51.129Z,1406.25
2018-05-16T11:51:51.062Z,658.13
2018-05-16T11:52:51.001Z,658.13
2018-05-16T11:53:50.927Z,860.63
2018-05-16T11:54:50.861Z,1040.63
2018-05-16T11:55:50.794Z,883.13
2018-05-16T11:56:50.729Z,2851.88
2018-05-16T11:57:50.662Z,658.13
2018-05-16T11:58:50.592Z,421.88
2018-05-16T11:59:50.527Z,416.25
2018-05-16T12:00:50.460Z,371.25
2018-05-16T12:01:50.395Z,354.38
2018-05-16T12:02:50.355Z,348.75
2018-05-16T12:03:50.259Z,331.88
2018-05-16T12:04:50.191Z,298.13
2018-05-16T12:05:50.123Z,286.88
2018-05-16T12:06:50.055Z,292.50
2018-05-16T12:07:49.988Z,298.13
2018-05-16T12:08:49.919Z,303.75
2018-05-16T12:09:49.852Z,331.88
2018-05-16T12:10:49.781Z,354.38
2018-05-16T12:11:49.713Z,399.38
2018-05-16T12:12:49.645Z,511.88
2018-05-16T12:13:49.577Z,703.13
2018-05-16T12:14:49.576Z,691.88
2018-05-16T12:15:49.437Z,630.00
2018-05-16T12:16:49.370Z,500.63
2018-05-16T12:17:49.300Z,405.00
2018-05-16T12:18:49.229Z,376.88
2018-05-16T12:19:49.161Z,365.63
2018-05-16T12:20:49.091Z,371.25
2018-05-16T12:21:49.024Z,405.00
2018-05-16T12:22:48.953Z,455.63
2018-05-16T12:23:48.890Z,450.00
2018-05-16T12:24:48.813Z,438.75
2018-05-16T12:25:48.745Z,410.63
2018-05-16T12:26:48.673Z,427.50
2018-05-16T12:27:48.605Z,551.25
2018-05-16T12:28:48.537Z,883.13
2018-05-16T12:29:48.466Z,1091.25
2018-05-16T12:30:48.396Z,1490.63
2018-05-16T12:31:48.327Z,2373.75
2018-05-16T12:32:48.258Z,3234.38
2018-05-16T12:33:48.188Z,1023.75
2018-05-16T12:34:48.120Z,1147.50
2018-05-16T12:35:48.051Z,950.63
2018-05-16T12:36:47.983Z,922.50
2018-05-16T12:37:47.915Z,2621.25
2018-05-16T12:38:47.846Z,1479.38
2018-05-16T12:39:47.777Z,2430.00
2018-05-16T12:40:47.711Z,1035.00
2018-05-16T12:41:47.643Z,1310.63
2018-05-16T12:42:47.575Z,1693.13
2018-05-16T12:43:47.508Z,3588.75
2018-05-16T12:44:47.440Z,3217.50
2018-05-16T12:45:47.374Z,3206.25
2018-05-16T12:46:47.306Z,2885.63
2018-05-16T12:47:47.240Z,3133.13
2018-05-16T12:48:47.174Z,1383.75